Time;durP1;ratioP1;P1;durP2;ratioP2;P2;SDS_P1;SDS_P2;PMS_P1;PMS_P2;Temp;Humidity;BMP_temperature;BMP_pressure;BME280_temperature;BME280_humidity;BME280_pressure;Samples;Min_cycle;Max_cycle;Signal;HPM_P1;HPM_P2
2021/05/14 00:02:05;;;;;;;1.90;1.43;;;12.90;99.90;;;;;;5014187;28;20244;-62
2021/05/14 00:04:31;;;;;;;2.53;1.60;;;12.70;99.90;;;;;;5014873;28;20159;-60
2021/05/14 00:06:57;;;;;;;1.70;1.20;;;12.70;99.90;;;;;;5014415;28;20477;-62
2021/05/14 00:09:23;;;;;;;1.70;1.60;;;12.80;99.90;;;;;;5014474;28;20399;-62
2021/05/14 00:11:48;;;;;;;2.17;1.30;;;12.90;99.90;;;;;;5014582;28;20195;-62
2021/05/14 00:14:17;;;;;;;2.57;1.23;;;13.00;99.90;;;;;;5014379;28;20188;-61
2021/05/14 00:16:43;;;;;;;1.27;1.10;;;13.00;99.90;;;;;;4996787;28;20571;-62
2021/05/14 00:19:09;;;;;;;1.40;1.27;;;12.80;99.90;;;;;;5014553;28;20403;-62
2021/05/14 00:21:34;;;;;;;1.03;0.93;;;12.80;99.90;;;;;;5014166;28;20168;-62
2021/05/14 00:24:01;;;;;;;1.20;1.00;;;12.90;99.90;;;;;;5014235;28;20640;-62
2021/05/14 00:26:27;;;;;;;1.93;1.30;;;12.90;99.90;;;;;;5014180;28;20208;-62
2021/05/14 00:28:53;;;;;;;2.40;1.37;;;12.80;99.90;;;;;;5014152;28;20793;-62
2021/05/14 00:31:18;;;;;;;2.37;1.23;;;13.00;99.90;;;;;;5013823;28;20416;-62
2021/05/14 00:33:44;;;;;;;2.10;1.20;;;13.00;99.90;;;;;;5014174;28;20570;-62
2021/05/14 00:36:10;;;;;;;1.63;1.13;;;12.90;99.90;;;;;;5013706;28;20169;-62
2021/05/14 00:38:36;;;;;;;2.00;1.30;;;12.90;99.90;;;;;;5013971;28;20174;-62
2021/05/14 00:41:03;;;;;;;2.03;1.13;;;13.00;99.90;;;;;;5014009;28;20772;-60
2021/05/14 00:43:30;;;;;;;1.30;1.20;;;13.00;99.90;;;;;;5013826;28;20903;-62
2021/05/14 00:45:56;;;;;;;1.50;1.13;;;13.00;99.90;;;;;;5025944;28;20766;-62
2021/05/14 00:48:22;;;;;;;2.30;1.20;;;12.90;99.90;;;;;;5033958;28;20418;-61
2021/05/14 00:50:48;;;;;;;1.50;1.10;;;12.90;99.90;;;;;;5033292;28;20416;-61
2021/05/14 00:53:13;;;;;;;2.07;1.20;;;12.70;99.90;;;;;;5033858;28;20210;-61
2021/05/14 00:55:39;;;;;;;1.53;1.20;;;12.60;99.90;;;;;;5017556;28;20203;-61
2021/05/14 00:58:05;;;;;;;1.50;1.40;;;12.70;99.90;;;;;;5014037;28;20651;-61
2021/05/14 01:00:31;;;;;;;2.90;1.57;;;12.70;99.90;;;;;;5013500;28;20654;-61
2021/05/14 01:02:56;;;;;;;2.10;1.13;;;12.70;99.90;;;;;;5014830;28;20481;-60
2021/05/14 01:05:23;;;;;;;1.53;1.30;;;12.60;99.90;;;;;;5013839;28;20416;-61
2021/05/14 01:07:51;;;;;;;1.93;1.10;;;12.50;99.90;;;;;;5013228;28;20186;-61
2021/05/14 01:10:18;;;;;;;1.50;1.20;;;12.50;99.90;;;;;;5013782;28;20485;-61
2021/05/14 01:12:44;;;;;;;1.83;1.00;;;12.30;99.90;;;;;;5013055;28;20463;-61
2021/05/14 01:15:11;;;;;;;1.33;1.17;;;12.30;99.90;;;;;;5013425;28;20411;-61
2021/05/14 01:17:36;;;;;;;1.13;0.93;;;12.60;99.90;;;;;;5013369;28;20411;-58
2021/05/14 01:20:03;;;;;;;1.47;1.20;;;12.60;99.90;;;;;;5013589;28;20772;-61
2021/05/14 01:22:29;;;;;;;1.73;1.10;;;12.40;99.90;;;;;;5012966;28;20286;-61
2021/05/14 01:24:55;;;;;;;1.30;1.20;;;12.40;99.90;;;;;;5013278;28;20448;-61
2021/05/14 01:27:21;;;;;;;1.03;0.90;;;12.50;99.90;;;;;;5013555;28;20211;-61
2021/05/14 01:29:47;;;;;;;1.07;0.97;;;12.70;99.90;;;;;;5013097;28;20411;-60
2021/05/14 01:32:14;;;;;;;1.77;0.87;;;12.70;99.90;;;;;;5013039;28;20807;-60
2021/05/14 01:34:39;;;;;;;2.10;1.10;;;12.90;99.90;;;;;;5013281;28;20192;-61
2021/05/14 01:37:05;;;;;;;2.13;1.20;;;13.00;99.90;;;;;;5013224;28;20491;-60
2021/05/14 01:39:31;;;;;;;1.40;1.10;;;13.00;99.90;;;;;;5013409;28;20212;-64
2021/05/14 01:41:56;;;;;;;2.63;1.47;;;13.00;99.90;;;;;;5013384;28;20223;-62
2021/05/14 01:44:23;;;;;;;4.00;1.80;;;13.00;99.90;;;;;;5013429;28;20259;-62
2021/05/14 01:46:49;;;;;;;3.20;1.50;;;13.00;99.90;;;;;;5012896;28;20173;-61
2021/05/14 01:49:15;;;;;;;2.10;1.50;;;12.90;99.90;;;;;;5012905;28;20498;-62
2021/05/14 01:51:40;;;;;;;2.87;2.17;;;12.90;99.90;;;;;;5013249;28;20497;-62
2021/05/14 01:54:06;;;;;;;2.80;1.90;;;12.80;99.90;;;;;;5004027;28;20195;-62
2021/05/14 01:56:32;;;;;;;2.63;1.90;;;12.90;99.90;;;;;;5013302;28;20795;-61
2021/05/14 01:58:58;;;;;;;1.63;1.13;;;12.90;99.90;;;;;;5012882;28;20167;-62
2021/05/14 02:01:25;;;;;;;2.00;1.40;;;12.90;99.90;;;;;;5012770;28;20184;-62
2021/05/14 02:03:51;;;;;;;1.10;1.00;;;12.70;99.90;;;;;;5012752;28;20424;-62
2021/05/14 02:06:16;;;;;;;2.40;1.20;;;12.60;99.90;;;;;;5012694;28;20411;-62
2021/05/14 02:08:42;;;;;;;2.53;1.40;;;12.60;99.90;;;;;;5012979;28;20172;-62
2021/05/14 02:11:09;;;;;;;2.00;1.30;;;12.50;99.90;;;;;;5012992;28;20191;-62
2021/05/14 02:13:39;;;;;;;2.60;1.27;;;12.40;99.90;;;;;;5013776;28;20498;-62
2021/05/14 02:16:06;;;;;;;2.13;1.30;;;12.30;99.90;;;;;;5013025;28;20792;-61
2021/05/14 02:18:34;;;;;;;1.30;0.90;;;12.30;99.90;;;;;;5012872;28;20415;-62
2021/05/14 02:21:00;;;;;;;1.27;0.97;;;12.20;99.90;;;;;;5012573;28;20843;-62
2021/05/14 02:23:26;;;;;;;1.80;1.20;;;12.30;99.90;;;;;;5013706;28;20485;-61
2021/05/14 02:25:52;;;;;;;0.93;0.83;;;12.30;99.90;;;;;;5016358;28;20407;-60
2021/05/14 02:28:17;;;;;;;1.87;1.20;;;12.20;99.90;;;;;;5016287;28;20417;-61
2021/05/14 02:30:43;;;;;;;1.63;1.10;;;12.30;99.90;;;;;;5016135;28;20180;-62
2021/05/14 02:33:09;;;;;;;2.07;1.00;;;12.30;99.90;;;;;;5016190;28;20196;-62
2021/05/14 02:35:35;;;;;;;2.67;1.27;;;12.40;99.90;;;;;;5016044;28;20547;-62
2021/05/14 02:38:01;;;;;;;1.57;0.90;;;12.30;99.90;;;;;;5015935;28;20637;-62
2021/05/14 02:40:27;;;;;;;1.63;1.00;;;12.20;99.90;;;;;;5016126;28;20435;-62
2021/05/14 02:42:53;;;;;;;1.20;1.10;;;12.20;99.90;;;;;;5016269;28;20204;-61
2021/05/14 02:45:18;;;;;;;2.40;1.50;;;12.30;99.90;;;;;;5016268;28;20179;-62
2021/05/14 02:47:44;;;;;;;2.27;1.10;;;12.30;99.90;;;;;;5016162;28;20179;-62
2021/05/14 02:50:11;;;;;;;1.20;1.00;;;12.30;99.90;;;;;;5033963;28;20233;-61
2021/05/14 02:52:36;;;;;;;1.93;1.30;;;12.20;99.90;;;;;;5035522;28;20195;-60
2021/05/14 02:55:04;;;;;;;1.10;1.00;;;12.30;99.90;;;;;;5035854;28;20426;-62
2021/05/14 02:57:29;;;;;;;1.63;1.40;;;12.30;99.90;;;;;;5035821;28;20556;-62
2021/05/14 02:59:55;;;;;;;1.80;1.40;;;12.20;99.90;;;;;;5035465;28;20402;-62
2021/05/14 03:02:20;;;;;;;1.60;1.20;;;12.20;99.90;;;;;;5015483;28;20209;-62
2021/05/14 03:04:46;;;;;;;1.57;1.00;;;12.30;99.90;;;;;;5015714;28;20224;-61
2021/05/14 03:07:13;;;;;;;1.30;1.20;;;12.30;99.90;;;;;;5015646;28;20176;-62
2021/05/14 03:09:39;;;;;;;1.53;1.13;;;12.40;99.90;;;;;;5015523;28;20271;-61
2021/05/14 03:12:05;;;;;;;1.67;1.30;;;12.40;99.90;;;;;;5015368;28;20463;-62
2021/05/14 03:14:30;;;;;;;1.50;1.17;;;12.30;99.90;;;;;;5015408;28;20195;-62
2021/05/14 03:16:56;;;;;;;1.97;1.43;;;12.30;99.90;;;;;;5015436;28;20403;-61
2021/05/14 03:19:22;;;;;;;2.03;1.40;;;12.40;99.90;;;;;;5015482;28;20222;-62
2021/05/14 03:21:47;;;;;;;1.43;1.23;;;12.20;99.90;;;;;;5015181;28;20278;-62
2021/05/14 03:24:13;;;;;;;1.80;1.03;;;12.30;99.90;;;;;;5015570;28;20695;-60
2021/05/14 03:26:38;;;;;;;1.37;1.10;;;12.30;99.90;;;;;;5015313;28;20171;-62
2021/05/14 03:29:04;;;;;;;1.57;1.47;;;12.30;99.90;;;;;;5015509;28;20178;-62
2021/05/14 03:31:30;;;;;;;1.40;1.20;;;12.20;99.90;;;;;;5014940;28;20318;-62
2021/05/14 03:33:56;;;;;;;2.33;1.40;;;12.20;99.90;;;;;;5014911;28;20795;-62
2021/05/14 03:36:22;;;;;;;2.60;1.57;;;12.10;99.90;;;;;;5014922;28;20410;-60
2021/05/14 03:38:49;;;;;;;2.97;1.80;;;12.20;99.90;;;;;;5015084;28;20176;-62
2021/05/14 03:41:33;;;;;;;3.90;2.30;;;12.20;99.90;;;;;;5014948;28;20412;-62
2021/05/14 03:44:00;;;;;;;3.80;2.93;;;12.20;99.90;;;;;;5015234;28;20739;-62
2021/05/14 03:46:30;;;;;;;5.80;3.83;;;12.20;99.90;;;;;;5015104;28;20415;-62
2021/05/14 03:48:56;;;;;;;8.13;4.30;;;12.10;99.90;;;;;;5014500;28;20413;-61
2021/05/14 03:51:21;;;;;;;6.97;4.60;;;11.90;99.90;;;;;;5014824;28;20410;-60
2021/05/14 03:53:47;;;;;;;3.43;2.20;;;11.90;99.90;;;;;;5014754;28;20728;-60
2021/05/14 03:56:12;;;;;;;5.43;1.77;;;11.90;99.90;;;;;;5014751;28;20171;-61
2021/05/14 03:58:38;;;;;;;1.93;1.30;;;12.00;99.90;;;;;;4997138;28;20169;-62
2021/05/14 04:01:04;;;;;;;1.60;1.40;;;11.80;99.90;;;;;;5014749;28;20279;-61
2021/05/14 04:03:30;;;;;;;1.50;1.17;;;11.80;99.90;;;;;;5014466;28;20545;-62
2021/05/14 04:05:56;;;;;;;2.73;1.90;;;11.80;99.90;;;;;;5014234;28;20178;-62
2021/05/14 04:08:21;;;;;;;1.57;1.30;;;11.70;99.90;;;;;;5014179;28;20259;-62
2021/05/14 04:11:27;;;;;;;1.43;1.33;;;11.70;99.90;;;;;;5014441;28;20202;-62
2021/05/14 04:16:17;;;;;;;1.67;1.30;;;11.60;99.90;;;;;;5000063;28;20426;-62
2021/05/14 04:18:43;;;;;;;1.50;1.40;;;11.60;99.90;;;;;;5014274;28;20414;-62
2021/05/14 04:21:08;;;;;;;2.20;1.50;;;11.50;99.90;;;;;;5013988;28;20188;-62
2021/05/14 04:23:34;;;;;;;1.73;1.30;;;11.40;99.90;;;;;;5014162;28;20703;-62
2021/05/14 04:26:01;;;;;;;2.67;1.83;;;11.40;99.90;;;;;;5014452;28;20191;-62
2021/05/14 04:28:26;;;;;;;2.60;1.50;;;11.40;99.90;;;;;;5014394;28;20202;-62
2021/05/14 04:30:52;;;;;;;1.50;1.40;;;11.40;99.90;;;;;;5014312;28;20835;-62
2021/05/14 04:33:17;;;;;;;2.37;1.40;;;11.30;99.90;;;;;;5014428;28;20200;-62
2021/05/14 04:35:43;;;;;;;1.50;1.40;;;11.20;99.90;;;;;;5013901;28;20161;-61
2021/05/14 04:38:08;;;;;;;2.53;1.80;;;11.20;99.90;;;;;;5013934;28;20165;-60
2021/05/14 04:40:34;;;;;;;2.37;1.70;;;11.10;99.90;;;;;;5005537;28;20167;-59
2021/05/14 04:43:04;;;;;;;2.13;1.40;;;11.10;99.90;;;;;;5033785;28;20226;-61
2021/05/14 04:45:30;;;;;;;2.40;1.50;;;11.20;99.90;;;;;;5024397;28;20180;-61
2021/05/14 04:47:57;;;;;;;1.97;1.77;;;11.20;99.90;;;;;;5005095;28;20418;-62
2021/05/14 04:50:22;;;;;;;2.83;1.57;;;11.20;99.90;;;;;;5013551;28;20408;-62
2021/05/14 04:52:48;;;;;;;1.90;1.80;;;11.10;99.90;;;;;;5013435;28;20530;-61
2021/05/14 04:55:15;;;;;;;1.60;1.50;;;11.10;99.90;;;;;;5013661;28;20604;-61
2021/05/14 04:57:41;;;;;;;2.67;1.57;;;11.10;99.90;;;;;;5013674;28;20191;-61
2021/05/14 05:00:08;;;;;;;1.97;1.77;;;11.20;99.90;;;;;;5013528;28;20414;-61
2021/05/14 05:02:35;;;;;;;3.00;1.57;;;11.20;99.90;;;;;;5013599;28;20238;-61
2021/05/14 05:05:01;;;;;;;2.17;1.73;;;11.20;99.90;;;;;;5013332;28;20418;-61
2021/05/14 05:07:30;;;;;;;1.40;1.30;;;11.30;99.90;;;;;;5013580;28;20406;-61
2021/05/14 05:09:55;;;;;;;1.60;1.50;;;11.30;99.90;;;;;;5013456;28;20410;-61
2021/05/14 05:12:21;;;;;;;1.90;1.40;;;11.30;99.90;;;;;;5013680;28;20787;-60
2021/05/14 05:14:47;;;;;;;1.70;1.60;;;11.30;99.90;;;;;;4995899;28;20192;-61
2021/05/14 05:17:13;;;;;;;1.20;1.10;;;11.40;99.90;;;;;;5013948;28;20174;-60
2021/05/14 05:19:38;;;;;;;3.20;1.80;;;11.30;99.90;;;;;;5013379;28;20398;-60
2021/05/14 05:22:04;;;;;;;1.50;1.40;;;11.30;99.90;;;;;;5013307;28;20187;-59
2021/05/14 05:24:30;;;;;;;3.83;1.60;;;11.40;99.90;;;;;;5013586;28;20175;-61
2021/05/14 05:26:55;;;;;;;2.20;1.53;;;11.60;99.90;;;;;;5013571;28;20175;-61
2021/05/14 05:29:21;;;;;;;1.43;1.30;;;11.70;99.90;;;;;;5013282;28;20169;-61
2021/05/14 05:31:46;;;;;;;3.50;2.00;;;11.80;99.90;;;;;;5013165;28;20235;-60
2021/05/14 05:34:12;;;;;;;1.80;1.70;;;11.80;99.90;;;;;;5013365;28;20204;-61
2021/05/14 05:36:38;;;;;;;2.10;1.90;;;12.00;99.90;;;;;;5013069;28;20651;-60
2021/05/14 05:39:04;;;;;;;2.93;1.60;;;12.20;99.90;;;;;;5013289;28;20259;-61
2021/05/14 05:41:29;;;;;;;1.93;1.77;;;12.20;99.90;;;;;;5013256;28;20205;-61
2021/05/14 05:43:55;;;;;;;1.50;1.20;;;12.30;99.90;;;;;;5013333;28;20943;-61
2021/05/14 05:46:21;;;;;;;1.83;1.23;;;12.30;99.90;;;;;;5013016;28;20651;-61
2021/05/14 05:48:49;;;;;;;2.20;1.23;;;12.20;99.90;;;;;;5013105;28;20631;-61
2021/05/14 05:51:15;;;;;;;1.83;1.30;;;12.30;99.90;;;;;;5013108;28;20416;-61
2021/05/14 05:53:44;;;;;;;2.43;1.67;;;12.40;99.90;;;;;;5012795;28;20979;-61
2021/05/14 05:56:10;;;;;;;2.40;1.57;;;12.40;99.90;;;;;;5013220;28;20410;-59
2021/05/14 05:58:35;;;;;;;2.03;1.40;;;12.50;99.90;;;;;;5014314;28;20403;-61
2021/05/14 06:01:02;;;;;;;4.00;1.60;;;12.50;99.90;;;;;;5017131;28;20199;-61
2021/05/14 06:03:27;;;;;;;2.93;1.50;;;12.80;99.90;;;;;;5016678;28;20203;-61
2021/05/14 06:05:53;;;;;;;1.67;1.27;;;13.00;99.90;;;;;;5016379;28;20418;-61
2021/05/14 06:08:19;;;;;;;1.50;1.27;;;13.10;99.90;;;;;;5016339;28;20169;-61
2021/05/14 06:10:48;;;;;;;2.83;1.10;;;13.30;99.90;;;;;;5016884;28;20221;-62
2021/05/14 06:13:14;;;;;;;2.33;0.93;;;13.00;99.90;;;;;;5016533;28;20195;-62
2021/05/14 06:15:40;;;;;;;2.00;1.20;;;13.10;99.90;;;;;;5016636;28;20402;-62
2021/05/14 06:18:14;;;;;;;1.93;0.80;;;13.10;99.90;;;;;;5016784;28;20413;-61
2021/05/14 06:20:43;;;;;;;1.30;0.97;;;13.10;99.90;;;;;;5016397;28;20577;-61
2021/05/14 06:23:11;;;;;;;1.93;0.90;;;13.30;99.90;;;;;;5016085;28;20434;-62
2021/05/14 06:25:36;;;;;;;1.83;0.80;;;13.40;99.90;;;;;;5016300;28;20498;-62
2021/05/14 06:28:03;;;;;;;1.60;1.07;;;13.60;99.90;;;;;;5016545;28;20840;-62
2021/05/14 06:30:29;;;;;;;1.43;0.90;;;13.70;99.90;;;;;;5016142;28;20172;-62
2021/05/14 06:32:55;;;;;;;1.00;0.90;;;13.70;99.90;;;;;;5016335;28;20478;-62
2021/05/14 06:35:21;;;;;;;1.60;1.00;;;13.80;99.90;;;;;;5031986;28;20172;-61
2021/05/14 06:37:47;;;;;;;1.30;1.00;;;14.10;99.90;;;;;;5035593;28;20456;-62
2021/05/14 06:40:13;;;;;;;1.63;0.70;;;14.30;99.90;;;;;;5028469;28;20409;-62
2021/05/14 06:42:39;;;;;;;1.67;0.57;;;14.30;99.90;;;;;;5016338;28;20192;-62
2021/05/14 06:45:06;;;;;;;1.87;0.70;;;14.30;99.90;;;;;;5015879;28;20521;-62
2021/05/14 06:47:32;;;;;;;1.30;0.57;;;14.30;99.90;;;;;;5016246;28;20168;-62
2021/05/14 06:50:02;;;;;;;1.70;0.70;;;14.40;99.90;;;;;;5015689;28;20459;-62
2021/05/14 06:52:28;;;;;;;1.50;0.70;;;14.40;99.90;;;;;;5015602;28;20870;-62
2021/05/14 06:54:54;;;;;;;1.00;0.63;;;14.10;99.90;;;;;;5015754;28;20535;-62
2021/05/14 06:57:19;;;;;;;1.53;0.60;;;14.20;99.90;;;;;;5015939;28;20642;-62
2021/05/14 06:59:45;;;;;;;1.83;0.63;;;14.40;99.90;;;;;;5015715;28;20212;-62
2021/05/14 07:02:10;;;;;;;1.43;0.60;;;14.50;99.90;;;;;;5043820;22;20196;-56
2021/05/14 07:04:36;;;;;;;0.90;0.60;;;14.60;99.90;;;;;;5018329;28;20552;-54
2021/05/14 07:07:02;;;;;;;1.60;0.57;;;14.90;99.90;;;;;;5035926;28;20261;-55
2021/05/14 07:09:27;;;;;;;0.90;0.60;;;14.90;99.90;;;;;;5017997;28;20240;-54
2021/05/14 07:11:53;;;;;;;1.30;0.60;;;15.10;99.90;;;;;;5036470;28;20405;-57
2021/05/14 07:14:19;;;;;;;1.20;0.60;;;15.10;99.90;;;;;;5057042;28;20269;-54
2021/05/14 07:16:46;;;;;;;1.30;0.63;;;15.00;99.90;;;;;;5057231;28;20162;-56
2021/05/14 07:19:15;;;;;;;1.00;0.70;;;14.90;99.90;;;;;;5056925;28;20408;-55
2021/05/14 07:21:42;;;;;;;0.87;0.70;;;15.10;99.90;;;;;;5055892;28;20747;-55
2021/05/14 07:24:09;;;;;;;0.77;0.67;;;15.20;99.90;;;;;;5056769;28;20419;-55
2021/05/14 07:26:35;;;;;;;1.37;0.70;;;15.30;99.90;;;;;;5056333;28;20732;-56
2021/05/14 07:29:03;;;;;;;1.73;0.80;;;15.50;99.90;;;;;;5056007;28;20408;-60
2021/05/14 07:31:29;;;;;;;1.00;0.70;;;15.90;99.90;;;;;;5068252;28;20408;-60
2021/05/14 07:33:55;;;;;;;0.93;0.63;;;16.10;99.90;;;;;;5074948;28;20445;-62
2021/05/14 07:36:20;;;;;;;1.60;0.70;;;16.20;99.90;;;;;;5075044;28;20409;-61
2021/05/14 07:38:46;;;;;;;1.17;0.60;;;16.20;99.90;;;;;;5059827;28;20218;-61
2021/05/14 07:41:12;;;;;;;1.23;0.60;;;16.20;99.90;;;;;;5054796;28;20177;-61
2021/05/14 07:43:38;;;;;;;1.13;0.60;;;16.20;99.90;;;;;;5054808;28;20187;-61
2021/05/14 07:46:04;;;;;;;1.20;0.70;;;16.10;99.90;;;;;;5054922;28;20415;-61
2021/05/14 07:48:30;;;;;;;1.03;0.87;;;16.50;99.90;;;;;;5055104;28;20168;-62
2021/05/14 07:50:55;;;;;;;1.10;0.70;;;16.70;99.90;;;;;;5054727;28;20418;-61
2021/05/14 07:53:22;;;;;;;1.73;0.60;;;16.50;99.90;;;;;;5054121;28;20200;-60
2021/05/14 07:55:47;;;;;;;2.00;0.60;;;16.50;99.90;;;;;;5054458;28;20165;-61
2021/05/14 07:58:13;;;;;;;1.83;1.00;;;16.50;99.90;;;;;;5055029;28;20406;-60
2021/05/14 08:00:40;;;;;;;1.57;0.70;;;16.60;99.90;;;;;;5060491;28;20577;-60
2021/05/14 08:03:06;;;;;;;2.10;0.70;;;16.60;99.90;;;;;;5073990;28;20747;-61
2021/05/14 08:05:31;;;;;;;3.20;0.60;;;16.80;99.90;;;;;;5074319;28;20431;-61
2021/05/14 08:08:12;;;;;;;2.13;0.70;;;16.70;99.90;;;;;;5050244;28;20182;-63
2021/05/14 08:10:38;;;;;;;1.03;0.70;;;16.60;99.50;;;;;;5046794;28;20166;-60
2021/05/14 08:13:04;;;;;;;19.07;1.40;;;16.40;99.70;;;;;;5053837;28;20939;-59
2021/05/14 08:15:31;;;;;;;1.77;0.90;;;16.20;99.90;;;;;;5036353;28;20421;-61
2021/05/14 08:17:56;;;;;;;1.90;0.73;;;16.30;99.90;;;;;;5054221;28;20747;-61
2021/05/14 08:20:22;;;;;;;1.13;0.77;;;16.40;99.60;;;;;;5053525;28;20415;-60
2021/05/14 08:22:49;;;;;;;1.37;0.77;;;16.40;99.90;;;;;;5053550;28;20733;-59
2021/05/14 08:25:14;;;;;;;1.57;0.60;;;16.70;99.40;;;;;;5053854;28;20414;-59
2021/05/14 08:27:40;;;;;;;1.47;0.70;;;17.00;99.10;;;;;;5053829;28;20410;-60
2021/05/14 08:30:08;;;;;;;1.53;0.80;;;17.00;98.40;;;;;;5053696;28;20176;-62
2021/05/14 08:32:34;;;;;;;0.80;0.70;;;17.30;97.60;;;;;;5053946;28;20507;-60
2021/05/14 08:35:00;;;;;;;1.10;0.60;;;17.30;96.50;;;;;;5053410;28;20494;-60
2021/05/14 08:37:25;;;;;;;0.90;0.60;;;17.00;96.50;;;;;;5053299;28;20194;-61
2021/05/14 08:39:51;;;;;;;0.80;0.60;;;17.10;97.80;;;;;;5056227;28;20546;-62
2021/05/14 08:42:17;;;;;;;2.83;0.90;;;17.00;97.10;;;;;;5053681;28;20186;-63
2021/05/14 08:44:43;;;;;;;1.77;0.80;;;16.90;97.80;;;;;;5054195;28;20204;-61
2021/05/14 08:47:11;;;;;;;2.20;1.10;;;17.40;97.80;;;;;;5053993;28;20170;-62
2021/05/14 08:49:38;;;;;;;1.00;0.80;;;17.30;98.30;;;;;;5053573;28;20432;-61
2021/05/14 08:52:07;;;;;;;1.83;0.80;;;17.10;97.50;;;;;;5052899;28;20412;-61
2021/05/14 08:54:35;;;;;;;1.50;0.83;;;17.10;98.40;;;;;;5053405;28;20452;-61
2021/05/14 08:57:01;;;;;;;0.70;0.50;;;17.10;98.40;;;;;;5053097;28;20403;-61
2021/05/14 08:59:26;;;;;;;1.33;0.83;;;17.30;97.60;;;;;;5053516;28;20404;-60
2021/05/14 09:01:52;;;;;;;2.07;0.80;;;17.20;97.00;;;;;;5069082;28;20176;-61
2021/05/14 09:04:19;;;;;;;1.00;0.70;;;17.20;97.10;;;;;;5072918;28;20193;-60
2021/05/14 09:06:45;;;;;;;0.80;0.60;;;17.40;97.60;;;;;;5073266;28;20660;-61
2021/05/14 09:09:13;;;;;;;1.93;0.73;;;17.60;96.70;;;;;;5073083;28;20430;-61
2021/05/14 09:11:48;;;;;;;2.30;0.80;;;17.70;96.70;;;;;;5073547;28;20400;-59
2021/05/14 09:14:33;;;;;;;1.80;0.70;;;17.70;96.10;;;;;;5072970;28;20806;-60
2021/05/14 09:17:09;;;;;;;0.87;0.60;;;17.60;96.00;;;;;;5073228;28;20404;-60
2021/05/14 09:19:37;;;;;;;0.90;0.60;;;17.80;96.00;;;;;;5073203;28;20383;-60
2021/05/14 09:22:06;;;;;;;2.00;0.60;;;17.90;96.10;;;;;;5072579;28;20396;-60
2021/05/14 09:24:32;;;;;;;5.33;1.10;;;17.70;95.20;;;;;;5073077;28;20403;-62
2021/05/14 09:26:58;;;;;;;1.50;0.60;;;17.70;95.50;;;;;;5073575;28;20406;-61
2021/05/14 09:29:38;;;;;;;0.90;0.60;;;17.50;95.90;;;;;;5072869;28;20630;-61
2021/05/14 09:32:19;;;;;;;0.83;0.60;;;17.60;95.70;;;;;;5072844;28;20185;-60
2021/05/14 09:34:52;;;;;;;1.33;1.23;;;17.50;96.50;;;;;;5076285;28;20525;-62
2021/05/14 09:37:19;;;;;;;2.23;0.93;;;17.10;97.30;;;;;;5076748;28;20740;-61
2021/05/14 09:39:46;;;;;;;1.87;0.87;;;16.60;99.90;;;;;;5077137;28;20400;-62
2021/05/14 09:42:12;;;;;;;0.90;0.70;;;16.60;99.90;;;;;;5077373;28;20457;-61
2021/05/14 09:44:37;;;;;;;3.80;0.90;;;16.50;99.90;;;;;;5077274;28;20906;-59
2021/05/14 09:47:03;;;;;;;1.63;1.20;;;16.60;99.90;;;;;;5077042;28;20404;-63
2021/05/14 09:49:30;;;;;;;1.83;0.90;;;16.70;99.90;;;;;;5076974;28;20256;-61
2021/05/14 09:52:03;;;;;;;1.57;0.63;;;17.10;99.90;;;;;;5076826;28;20413;-59
2021/05/14 09:54:37;;;;;;;1.20;0.50;;;17.30;99.90;;;;;;5077406;28;20428;-62
2021/05/14 09:59:55;;;;;;;2.37;0.80;;;17.40;99.60;;;;;;5077479;28;20383;-61
2021/05/14 10:02:41;;;;;;;0.90;0.70;;;17.20;98.10;;;;;;5077112;28;20449;-61
2021/05/14 10:05:12;;;;;;;1.20;0.60;;;17.30;97.80;;;;;;5076615;28;20392;-60
2021/05/14 10:07:40;;;;;;;0.80;0.50;;;17.20;97.60;;;;;;5076654;28;20430;-61
2021/05/14 10:10:08;;;;;;;1.00;0.60;;;16.90;98.00;;;;;;5076659;28;20413;-61
2021/05/14 10:12:36;;;;;;;0.87;0.63;;;17.10;98.30;;;;;;5076496;28;20416;-60
2021/05/14 10:15:03;;;;;;;1.93;0.90;;;17.40;97.90;;;;;;5076593;28;20451;-62
2021/05/14 10:17:30;;;;;;;1.30;0.70;;;17.70;97.90;;;;;;5076842;28;20400;-62
2021/05/14 10:19:57;;;;;;;1.90;0.90;;;17.60;98.10;;;;;;5076871;28;20889;-62
2021/05/14 10:22:28;;;;;;;2.30;0.73;;;17.40;98.30;;;;;;5075900;28;20447;-61
2021/05/14 10:24:58;;;;;;;1.80;0.80;;;17.00;98.10;;;;;;5077516;28;20791;-62
2021/05/14 10:27:27;;;;;;;3.17;0.70;;;16.80;98.40;;;;;;5076232;28;20417;-61
2021/05/14 10:29:58;;;;;;;2.70;0.97;;;16.90;97.90;;;;;;5076451;28;20396;-60
2021/05/14 10:32:45;;;;;;;1.20;1.03;;;16.90;98.80;;;;;;5076227;28;20430;-61
2021/05/14 10:35:27;;;;;;;1.77;0.80;;;16.80;99.90;;;;;;5075791;28;20426;-61
2021/05/14 10:38:03;;;;;;;3.37;0.90;;;16.60;99.90;;;;;;5075786;28;20405;-60
2021/05/14 10:40:31;;;;;;;1.63;1.03;;;16.70;99.90;;;;;;5071591;28;20425;-61
2021/05/14 10:43:03;;;;;;;1.30;0.77;;;16.60;99.90;;;;;;5056000;28;20566;-61
2021/05/14 10:45:40;;;;;;;2.60;1.03;;;16.50;99.90;;;;;;5054440;28;20387;-60
2021/05/14 10:48:17;;;;;;;1.00;0.80;;;16.50;99.90;;;;;;5056052;28;20434;-61
2021/05/14 10:50:51;;;;;;;2.67;1.10;;;16.50;99.90;;;;;;5055745;28;20377;-61
2021/05/14 10:53:17;;;;;;;1.50;1.00;;;16.20;99.90;;;;;;5055719;28;20491;-62
2021/05/14 10:55:45;;;;;;;2.00;0.83;;;16.50;99.90;;;;;;5055803;28;20443;-61
2021/05/14 10:58:43;;;;;;;1.67;0.90;;;16.70;99.90;;;;;;5056214;28;20654;-60
2021/05/14 11:01:28;;;;;;;2.90;1.67;;;17.00;99.90;;;;;;5050225;28;20413;-62
2021/05/14 11:03:54;;;;;;;1.70;0.90;;;17.50;99.90;;;;;;5039374;28;20444;-60
2021/05/14 11:06:19;;;;;;;1.20;0.80;;;17.70;99.90;;;;;;5017770;28;20500;-60
2021/05/14 11:08:57;;;;;;;1.47;0.80;;;17.80;99.90;;;;;;5035449;28;20402;-61
2021/05/14 11:11:23;;;;;;;1.50;0.83;;;17.60;99.90;;;;;;5017744;28;20552;-60
2021/05/14 11:13:49;;;;;;;0.80;0.70;;;17.20;99.90;;;;;;5035610;28;20452;-61
2021/05/14 11:16:38;;;;;;;1.63;0.70;;;17.00;99.90;;;;;;5035514;28;20178;-59
2021/05/14 11:19:16;;;;;;;1.53;0.70;;;16.80;99.90;;;;;;5035392;28;20401;-61
2021/05/14 11:22:16;;;;;;;1.03;0.70;;;17.20;99.90;;;;;;5035461;28;20396;-61
2021/05/14 11:24:49;;;;;;;2.50;0.90;;;17.60;99.90;;;;;;5035210;28;20391;-61
2021/05/14 11:27:16;;;;;;;3.87;1.27;;;18.30;99.90;;;;;;5035188;28;20801;-60
2021/05/14 11:29:53;;;;;;;0.90;0.50;;;19.30;99.90;;;;;;5035414;28;20437;-62
2021/05/14 11:32:20;;;;;;;2.40;0.70;;;19.10;99.90;;;;;;5054879;28;20424;-61
2021/05/14 11:34:54;;;;;;;1.17;0.73;;;18.80;99.90;;;;;;5054752;28;20945;-62
2021/05/14 11:37:25;;;;;;;1.00;0.70;;;19.00;99.90;;;;;;5054756;28;20496;-60
2021/05/14 11:39:51;;;;;;;1.03;0.70;;;20.30;99.90;;;;;;5055088;28;20381;-61
2021/05/14 11:42:21;;;;;;;2.90;0.97;;;20.10;99.90;;;;;;5055070;28;20475;-61
2021/05/14 11:45:15;;;;;;;1.60;0.97;;;19.20;99.90;;;;;;5055119;28;20158;-61
2021/05/14 11:47:59;;;;;;;0.90;0.60;;;18.90;99.90;;;;;;5053193;28;20417;-60
2021/05/14 11:50:31;;;;;;;2.60;0.70;;;19.40;99.90;;;;;;5054695;28;20874;-60
2021/05/14 11:52:58;;;;;;;1.57;0.80;;;20.40;99.90;;;;;;5054582;28;20448;-61
2021/05/14 11:55:24;;;;;;;2.00;0.70;;;22.70;98.00;;;;;;5054840;28;20398;-60
2021/05/14 11:57:52;;;;;;;1.00;0.70;;;23.50;93.40;;;;;;5054574;28;20397;-61
2021/05/14 12:00:37;;;;;;;1.10;0.50;;;;;;;;;;5057554;28;20443;-61
2021/05/14 12:03:04;;;;;;;0.90;0.60;;;;;;;;;;5074608;28;20448;-62
2021/05/14 12:05:31;;;;;;;1.23;0.50;;;;;;;;;;5074245;28;20483;-62
2021/05/14 12:08:15;;;;;;;1.03;0.60;;;;;;;;;;5073960;28;20400;-61
2021/05/14 12:10:47;;;;;;;0.90;0.60;;;;;;;;;;5074181;28;20484;-63
2021/05/14 12:13:14;;;;;;;3.47;0.90;;;28.20;72.10;;;;;;5074116;28;20828;-62
2021/05/14 12:15:40;;;;;;;2.30;1.20;;;27.90;75.50;;;;;;5074348;28;20401;-63
2021/05/14 12:18:06;;;;;;;3.20;1.17;;;27.70;74.30;;;;;;5074704;28;20435;-62
2021/05/14 12:20:38;;;;;;;2.30;0.83;;;27.10;73.40;;;;;;5074343;28;20408;-60
2021/05/14 12:23:09;;;;;;;4.00;0.87;;;28.00;68.00;;;;;;5073622;28;20686;-62
2021/05/14 12:25:52;;;;;;;4.13;0.90;;;28.20;69.10;;;;;;5073944;28;20404;-62
2021/05/14 12:28:51;;;;;;;1.50;0.70;;;27.40;67.30;;;;;;5074163;28;20938;-62
2021/05/14 12:31:26;;;;;;;2.20;0.80;;;28.20;65.60;;;;;;5074051;28;20404;-62
2021/05/14 12:33:59;;;;;;;1.33;0.70;;;29.90;61.80;;;;;;5073584;28;20526;-63
2021/05/14 12:36:29;;;;;;;8.60;0.77;;;31.90;57.30;;;;;;5073571;28;20397;-62
2021/05/14 12:39:06;;;;;;;1.23;0.70;;;31.40;53.00;;;;;;5073530;28;20401;-62
2021/05/14 12:41:34;;;;;;;1.40;0.60;;;29.60;54.40;;;;;;5073860;28;20907;-62
2021/05/14 12:44:13;;;;;;;1.37;0.80;;;28.00;58.60;;;;;;5073485;28;20796;-62
2021/05/14 12:47:01;;;;;;;1.17;0.70;;;28.40;57.70;;;;;;5073810;28;20450;-63
2021/05/14 12:50:09;;;;;;;0.90;0.60;;;29.00;55.30;;;;;;5065125;28;20401;-62
2021/05/14 12:52:37;;;;;;;2.00;0.90;;;29.20;55.50;;;;;;5052916;28;20505;-62
2021/05/14 12:55:13;;;;;;;2.00;0.70;;;30.20;53.40;;;;;;5053415;28;20585;-62
2021/05/14 12:57:42;;;;;;;1.20;0.70;;;29.00;52.80;;;;;;5053745;28;20386;-63
2021/05/14 13:00:25;;;;;;;0.90;0.60;;;29.30;53.30;;;;;;5054930;28;20480;-62